createdAt,value
2018-08-23T00:00:48.575Z,7.30
2018-08-23T00:01:48.769Z,6.50
2018-08-23T00:02:48.964Z,6.50
2018-08-23T00:03:49.172Z,6.30
2018-08-23T00:04:49.375Z,6.20
2018-08-23T00:05:49.560Z,6.80
2018-08-23T00:06:49.753Z,6.50
2018-08-23T00:07:49.985Z,6.30
2018-08-23T00:08:50.138Z,6.90
2018-08-23T00:09:50.362Z,7.30
2018-08-23T00:10:50.524Z,6.70
2018-08-23T00:11:50.720Z,6.60
2018-08-23T00:12:50.918Z,6.20
2018-08-23T00:13:51.150Z,6.90
2018-08-23T00:14:51.293Z,6.90
2018-08-23T00:15:51.489Z,7.10
2018-08-23T00:16:51.705Z,7.60
2018-08-23T00:17:51.873Z,6.20
2018-08-23T00:18:52.068Z,7.00
2018-08-23T00:19:52.261Z,6.80
2018-08-23T00:20:52.454Z,6.90
2018-08-23T00:21:52.644Z,6.70
2018-08-23T00:22:52.845Z,6.50
2018-08-23T00:23:53.039Z,6.40
2018-08-23T00:24:53.232Z,6.30
2018-08-23T00:25:53.425Z,6.70
2018-08-23T00:26:53.625Z,7.10
2018-08-23T00:27:53.812Z,7.20
2018-08-23T00:28:54.006Z,7.10
2018-08-23T00:29:54.205Z,6.60
2018-08-23T00:30:54.400Z,7.20
2018-08-23T00:31:54.592Z,6.50
2018-08-23T00:32:54.788Z,7.00
2018-08-23T00:33:54.975Z,6.90
2018-08-23T00:34:55.185Z,6.40
2018-08-23T00:35:55.401Z,6.70
2018-08-23T00:36:55.597Z,6.60
2018-08-23T00:37:55.790Z,6.90
2018-08-23T00:38:55.982Z,6.80
2018-08-23T00:39:56.174Z,6.90
2018-08-23T00:40:56.367Z,6.90
2018-08-23T00:41:56.563Z,6.90
2018-08-23T00:42:56.753Z,7.30
2018-08-23T00:43:56.957Z,7.00
2018-08-23T00:44:57.149Z,7.40
2018-08-23T00:45:57.342Z,7.70
2018-08-23T00:46:57.538Z,6.80
2018-08-23T00:47:57.729Z,7.40
2018-08-23T00:48:57.930Z,6.90
2018-08-23T00:49:58.125Z,7.40
2018-08-23T00:50:58.315Z,6.90
2018-08-23T00:51:58.509Z,7.20
2018-08-23T00:52:58.704Z,7.40
2018-08-23T00:53:58.897Z,7.20
2018-08-23T00:54:59.090Z,7.30
2018-08-23T00:55:59.285Z,7.90
2018-08-23T00:56:59.480Z,7.80
2018-08-23T00:57:59.670Z,7.80
2018-08-23T00:58:59.868Z,7.40
2018-08-23T01:00:00.057Z,7.00
2018-08-23T01:01:00.262Z,7.10
2018-08-23T01:02:00.456Z,7.40
2018-08-23T01:03:00.649Z,7.50
2018-08-23T01:04:00.846Z,8.00
2018-08-23T01:05:01.038Z,6.90
2018-08-23T01:06:01.231Z,7.00
2018-08-23T01:07:01.424Z,7.60
2018-08-23T01:08:01.623Z,7.20
2018-08-23T01:09:01.813Z,7.70
2018-08-23T01:10:02.008Z,7.70
2018-08-23T01:11:02.199Z,7.40
2018-08-23T01:12:02.391Z,7.80
2018-08-23T01:13:02.585Z,6.80
2018-08-23T01:14:02.784Z,7.10
2018-08-23T01:15:02.972Z,7.70
2018-08-23T01:16:03.187Z,7.80
2018-08-23T01:17:03.387Z,7.40
2018-08-23T01:18:03.551Z,7.80
2018-08-23T01:19:03.743Z,7.40
2018-08-23T01:20:03.948Z,8.20
2018-08-23T01:21:04.138Z,7.20
2018-08-23T01:22:04.336Z,7.90
2018-08-23T01:23:04.536Z,8.20
2018-08-23T01:24:04.725Z,7.60
2018-08-23T01:25:04.924Z,7.20
2018-08-23T01:26:05.122Z,8.10
2018-08-23T01:27:05.302Z,7.90
2018-08-23T01:28:05.497Z,8.40
2018-08-23T01:29:05.689Z,7.50
2018-08-23T01:30:05.880Z,8.20
2018-08-23T01:31:06.075Z,7.60
2018-08-23T01:32:06.271Z,8.00
2018-08-23T01:33:06.462Z,8.00
2018-08-23T01:34:06.660Z,7.80
2018-08-23T01:35:06.857Z,7.80
2018-08-23T01:36:07.057Z,7.90
2018-08-23T01:37:07.243Z,7.70
2018-08-23T01:38:07.438Z,8.30
2018-08-23T01:39:07.630Z,7.50
2018-08-23T01:40:07.824Z,8.20
2018-08-23T01:41:08.023Z,7.80
2018-08-23T01:42:08.210Z,7.90
2018-08-23T01:43:08.403Z,7.90
2018-08-23T01:44:08.596Z,7.90
2018-08-23T01:45:08.788Z,7.90
2018-08-23T01:46:08.985Z,7.40
2018-08-23T01:47:09.173Z,8.30
2018-08-23T01:48:09.369Z,8.50
2018-08-23T01:49:09.566Z,8.00
2018-08-23T01:50:09.759Z,8.30
2018-08-23T01:51:09.959Z,8.00
2018-08-23T01:52:10.151Z,8.30
2018-08-23T01:53:10.338Z,8.20
2018-08-23T01:54:10.532Z,7.70
2018-08-23T01:55:10.724Z,8.40
2018-08-23T01:56:10.916Z,7.70
2018-08-23T01:57:11.107Z,7.70
2018-08-23T01:58:11.304Z,8.10
2018-08-23T01:59:11.501Z,7.90
2018-08-23T02:00:11.686Z,7.60
2018-08-23T02:01:11.879Z,8.60
2018-08-23T02:02:12.071Z,8.10
2018-08-23T02:03:12.264Z,8.00
2018-08-23T02:04:12.459Z,8.10
2018-08-23T02:05:12.652Z,8.20
2018-08-23T02:06:12.847Z,9.00
2018-08-23T02:07:13.068Z,8.10
2018-08-23T02:08:13.215Z,8.70
2018-08-23T02:09:13.413Z,8.20
2018-08-23T02:10:13.612Z,8.80
2018-08-23T02:11:13.802Z,8.50
2018-08-23T02:12:13.997Z,8.60
2018-08-23T02:13:14.193Z,9.00
2018-08-23T02:14:14.381Z,8.60
2018-08-23T02:15:14.587Z,7.90
2018-08-23T02:16:14.771Z,8.50
2018-08-23T02:17:14.970Z,8.10
2018-08-23T02:18:15.159Z,8.70
2018-08-23T02:19:15.350Z,9.10
2018-08-23T02:20:15.543Z,8.70
2018-08-23T02:21:15.736Z,8.50
2018-08-23T02:22:15.931Z,8.70
2018-08-23T02:23:16.125Z,8.40
2018-08-23T02:24:16.316Z,8.80
2018-08-23T02:25:16.509Z,8.80
2018-08-23T02:26:16.698Z,9.10
2018-08-23T02:27:16.890Z,9.30
2018-08-23T02:28:17.084Z,8.90
2018-08-23T02:29:17.275Z,9.40
2018-08-23T02:30:17.472Z,8.70
2018-08-23T02:31:17.663Z,9.50
2018-08-23T02:32:17.855Z,9.20
2018-08-23T02:33:18.049Z,9.20
2018-08-23T02:34:18.239Z,9.20
2018-08-23T02:35:18.437Z,8.50
2018-08-23T02:36:18.629Z,8.60
2018-08-23T02:37:18.833Z,8.60
2018-08-23T02:38:19.030Z,8.30
2018-08-23T02:39:19.216Z,8.70
2018-08-23T02:40:19.409Z,8.70
2018-08-23T02:41:19.616Z,9.40
2018-08-23T02:42:19.791Z,9.60
2018-08-23T02:43:19.984Z,9.50
2018-08-23T02:44:20.175Z,9.40
2018-08-23T02:45:20.365Z,8.20
2018-08-23T02:46:20.565Z,8.30
2018-08-23T02:47:20.756Z,8.90
2018-08-23T02:48:20.946Z,8.50
2018-08-23T02:49:21.146Z,8.00
2018-08-23T02:50:21.334Z,9.10
2018-08-23T02:51:21.526Z,8.10
2018-08-23T02:52:21.715Z,8.30
2018-08-23T02:53:21.908Z,8.30
2018-08-23T02:54:22.104Z,9.00
2018-08-23T02:55:22.292Z,9.30
2018-08-23T02:56:22.484Z,9.20
2018-08-23T02:57:22.669Z,9.00
2018-08-23T02:58:22.863Z,9.20
2018-08-23T02:59:23.057Z,9.10
2018-08-23T03:00:23.288Z,9.10
2018-08-23T03:01:23.440Z,9.30
2018-08-23T03:02:23.636Z,9.40
2018-08-23T03:03:23.826Z,9.30
2018-08-23T03:04:24.015Z,9.40
2018-08-23T03:05:24.211Z,10.80
2018-08-23T03:06:24.398Z,9.80
2018-08-23T03:07:24.594Z,10.20
2018-08-23T03:08:24.782Z,10.00
2018-08-23T03:09:24.968Z,10.50
2018-08-23T03:10:25.165Z,9.60
2018-08-23T03:11:25.349Z,9.70
2018-08-23T03:12:25.542Z,10.20
2018-08-23T03:13:25.729Z,8.40
2018-08-23T03:14:25.930Z,9.40
2018-08-23T03:15:26.124Z,7.90
2018-08-23T03:16:26.314Z,9.20
2018-08-23T03:17:26.512Z,8.30
2018-08-23T03:18:26.693Z,7.90
2018-08-23T03:19:26.888Z,8.60
2018-08-23T03:20:27.082Z,8.50
2018-08-23T03:21:27.277Z,8.70
2018-08-23T03:22:27.465Z,8.60
2018-08-23T03:23:27.658Z,8.90
2018-08-23T03:24:27.846Z,9.30
2018-08-23T03:25:28.040Z,9.40
2018-08-23T03:26:28.234Z,9.20
2018-08-23T03:27:28.425Z,8.60
2018-08-23T03:28:28.614Z,9.50
2018-08-23T03:29:28.812Z,8.70
2018-08-23T03:30:29.008Z,8.20
2018-08-23T03:31:29.188Z,8.90
2018-08-23T03:32:29.386Z,8.80
2018-08-23T03:33:29.571Z,9.30
2018-08-23T03:34:29.764Z,9.10
2018-08-23T03:35:29.965Z,10.10
2018-08-23T03:36:30.148Z,9.50
2018-08-23T03:37:30.345Z,10.00
2018-08-23T03:38:30.537Z,9.80
2018-08-23T03:39:30.725Z,9.10
2018-08-23T03:40:30.916Z,9.00
2018-08-23T03:41:31.104Z,8.80
2018-08-23T03:42:31.298Z,9.80
2018-08-23T03:43:31.489Z,8.80
2018-08-23T03:44:31.678Z,10.00
2018-08-23T03:45:31.870Z,9.20
2018-08-23T03:46:32.067Z,9.10
2018-08-23T03:47:32.258Z,9.40
2018-08-23T03:48:32.448Z,8.90
2018-08-23T03:49:32.640Z,10.10
2018-08-23T03:50:32.835Z,10.20
2018-08-23T03:51:33.025Z,9.60
2018-08-23T03:52:33.330Z,10.00
2018-08-23T03:53:33.408Z,9.30
2018-08-23T03:54:33.599Z,8.90
2018-08-23T03:55:33.810Z,9.50
2018-08-23T03:56:34.000Z,9.80
2018-08-23T03:57:34.201Z,9.60
2018-08-23T03:58:34.383Z,9.60
2018-08-23T03:59:34.580Z,9.50
2018-08-23T04:00:34.770Z,9.30
2018-08-23T04:01:34.963Z,9.60
2018-08-23T04:02:35.153Z,9.40
2018-08-23T04:03:35.344Z,9.90
2018-08-23T04:04:35.544Z,9.50
2018-08-23T04:05:35.733Z,10.60
2018-08-23T04:06:35.927Z,9.80
2018-08-23T04:07:36.119Z,9.90
2018-08-23T04:08:36.310Z,10.30
2018-08-23T04:09:36.500Z,9.70
2018-08-23T04:10:36.695Z,10.70
2018-08-23T04:11:36.888Z,10.30
2018-08-23T04:12:37.082Z,8.80
2018-08-23T04:13:37.266Z,9.90
2018-08-23T04:14:37.455Z,9.90
2018-08-23T04:15:37.650Z,9.50
2018-08-23T04:16:37.851Z,9.10
2018-08-23T04:17:38.039Z,9.60
2018-08-23T04:18:38.229Z,10.20
2018-08-23T04:19:38.413Z,10.10
2018-08-23T04:20:38.607Z,10.30
2018-08-23T04:21:38.794Z,10.30
2018-08-23T04:22:38.997Z,9.90
2018-08-23T04:23:39.182Z,10.80
2018-08-23T04:24:39.373Z,9.60
2018-08-23T04:25:39.565Z,10.60
2018-08-23T04:26:39.752Z,10.30
2018-08-23T04:27:39.950Z,9.90
2018-08-23T04:28:40.137Z,9.30
2018-08-23T04:29:40.328Z,9.70
2018-08-23T04:30:40.521Z,11.10
2018-08-23T04:31:40.708Z,10.00
2018-08-23T04:32:40.903Z,8.60
2018-08-23T04:33:41.103Z,9.10
2018-08-23T04:34:41.292Z,9.70
2018-08-23T04:35:41.488Z,9.00
2018-08-23T04:36:41.677Z,9.70
2018-08-23T04:37:41.868Z,10.20
2018-08-23T04:38:42.058Z,9.30
2018-08-23T04:39:42.248Z,10.60
2018-08-23T04:40:42.440Z,9.70
2018-08-23T04:41:42.632Z,10.60
2018-08-23T04:42:42.824Z,10.80
2018-08-23T04:43:43.019Z,10.80
2018-08-23T04:44:43.212Z,11.10
2018-08-23T04:45:43.409Z,11.00
2018-08-23T04:46:43.609Z,10.90
2018-08-23T04:47:43.797Z,11.00
2018-08-23T04:48:43.991Z,11.10
2018-08-23T04:49:44.182Z,10.80
2018-08-23T04:50:44.374Z,11.80
2018-08-23T04:51:44.568Z,12.40
2018-08-23T04:52:44.757Z,11.80
2018-08-23T04:53:44.944Z,12.60
2018-08-23T04:54:45.132Z,11.90
2018-08-23T04:55:45.324Z,11.80
2018-08-23T04:56:45.521Z,12.20
2018-08-23T04:57:45.708Z,11.10
2018-08-23T04:58:45.900Z,12.20
2018-08-23T04:59:46.090Z,12.40
2018-08-23T05:00:46.284Z,12.00
2018-08-23T05:01:46.478Z,11.80
2018-08-23T05:02:46.665Z,12.10
2018-08-23T05:03:46.860Z,11.70
2018-08-23T05:04:47.057Z,12.20
2018-08-23T05:05:47.245Z,11.90
2018-08-23T05:06:47.439Z,10.80
2018-08-23T05:07:47.631Z,10.80
2018-08-23T05:08:47.817Z,11.40
2018-08-23T05:09:48.015Z,11.40
2018-08-23T05:10:48.207Z,11.00
2018-08-23T05:11:48.404Z,11.10
2018-08-23T05:12:48.593Z,11.50
2018-08-23T05:13:48.778Z,10.90
2018-08-23T05:14:48.968Z,11.20
2018-08-23T05:15:49.165Z,11.60
2018-08-23T05:16:49.373Z,11.60
2018-08-23T05:17:49.567Z,12.30
2018-08-23T05:18:49.774Z,12.30
2018-08-23T05:19:49.951Z,11.40
2018-08-23T05:20:50.141Z,11.00
2018-08-23T05:21:50.347Z,11.50
2018-08-23T05:22:50.537Z,11.30
2018-08-23T05:23:50.731Z,11.00
2018-08-23T05:24:50.919Z,10.40
2018-08-23T05:25:51.115Z,11.70
2018-08-23T05:26:51.307Z,11.20
2018-08-23T05:27:51.506Z,11.00
2018-08-23T05:28:51.699Z,10.80
2018-08-23T05:29:51.971Z,10.90
2018-08-23T05:30:52.089Z,9.90
2018-08-23T05:31:52.280Z,10.30
2018-08-23T05:32:52.470Z,10.50
2018-08-23T05:33:52.669Z,10.80
2018-08-23T05:34:52.858Z,10.50
2018-08-23T05:35:53.055Z,10.30
2018-08-23T05:36:53.251Z,10.20
2018-08-23T05:37:53.442Z,10.40
2018-08-23T05:38:53.634Z,10.80
2018-08-23T05:39:53.828Z,10.80
2018-08-23T05:40:54.023Z,11.20
2018-08-23T05:41:54.221Z,11.20
2018-08-23T05:42:54.413Z,11.40
2018-08-23T05:43:54.631Z,10.10
2018-08-23T05:44:54.840Z,10.00
2018-08-23T05:45:55.023Z,10.00
2018-08-23T05:46:55.224Z,10.50
2018-08-23T05:47:55.416Z,10.20
2018-08-23T05:48:55.615Z,10.50
2018-08-23T05:49:55.811Z,10.40
2018-08-23T05:50:56.024Z,10.50
2018-08-23T05:51:56.201Z,10.90
2018-08-23T05:52:56.393Z,10.70
2018-08-23T05:53:56.581Z,10.20
2018-08-23T05:54:56.780Z,10.30
2018-08-23T05:55:56.976Z,10.20
2018-08-23T05:56:57.171Z,10.50
2018-08-23T05:57:57.365Z,10.80
2018-08-23T05:58:57.567Z,10.30
2018-08-23T05:59:57.776Z,11.60
2018-08-23T06:00:57.975Z,11.40
2018-08-23T06:01:58.176Z,10.80
2018-08-23T06:02:58.378Z,10.40
2018-08-23T06:03:58.566Z,10.70
2018-08-23T06:04:58.765Z,10.30
2018-08-23T06:05:58.958Z,10.40
2018-08-23T06:06:59.167Z,10.80
2018-08-23T06:07:59.360Z,10.90
2018-08-23T06:08:59.562Z,10.40
2018-08-23T06:09:59.765Z,10.90
2018-08-23T06:10:59.954Z,10.30
2018-08-23T06:12:00.151Z,10.20
2018-08-23T06:13:00.350Z,10.30
2018-08-23T06:14:00.567Z,10.40
2018-08-23T06:15:00.745Z,10.30
2018-08-23T06:16:00.949Z,10.70
2018-08-23T06:17:01.147Z,10.30
2018-08-23T06:18:01.339Z,10.20
2018-08-23T06:19:01.544Z,10.40
2018-08-23T06:20:01.814Z,9.80
2018-08-23T06:21:01.936Z,10.20
2018-08-23T06:22:02.141Z,10.20
2018-08-23T06:23:02.336Z,10.70
2018-08-23T06:24:02.537Z,10.70
2018-08-23T06:25:02.735Z,10.10
2018-08-23T06:26:02.929Z,10.30
2018-08-23T06:27:03.126Z,9.80
2018-08-23T06:28:03.331Z,9.90
2018-08-23T06:29:03.536Z,9.90
2018-08-23T06:30:03.735Z,10.20
2018-08-23T06:31:03.933Z,10.10
2018-08-23T06:32:04.133Z,9.30
2018-08-23T06:33:04.455Z,9.60
2018-08-23T06:34:04.592Z,9.90
2018-08-23T06:35:04.729Z,9.50
2018-08-23T06:36:04.929Z,9.30
2018-08-23T06:37:05.128Z,9.90
2018-08-23T06:38:05.325Z,9.50
2018-08-23T06:39:05.525Z,9.40
2018-08-23T06:40:05.729Z,9.30
2018-08-23T06:41:05.927Z,9.60
2018-08-23T06:42:06.126Z,9.00
2018-08-23T06:43:06.325Z,9.50
2018-08-23T06:44:06.525Z,8.80
2018-08-23T06:45:06.724Z,9.00
2018-08-23T06:46:07.027Z,9.90
2018-08-23T06:47:07.132Z,8.80
2018-08-23T06:48:07.329Z,8.80
2018-08-23T06:49:07.526Z,9.70
2018-08-23T06:50:07.724Z,9.80
2018-08-23T06:51:08.003Z,9.80
2018-08-23T06:52:08.154Z,9.20
2018-08-23T06:53:08.327Z,9.50
2018-08-23T06:54:08.527Z,8.50
2018-08-23T06:55:08.752Z,8.40
2018-08-23T06:56:08.930Z,8.10
2018-08-23T06:57:09.128Z,7.60
2018-08-23T06:58:09.329Z,7.70
2018-08-23T06:59:09.519Z,7.30
2018-08-23T07:00:09.719Z,7.40
2018-08-23T07:01:09.917Z,7.30
2018-08-23T07:02:10.124Z,7.00
2018-08-23T07:03:10.324Z,7.30
2018-08-23T07:04:10.523Z,7.00
2018-08-23T07:05:10.722Z,7.10
2018-08-23T07:06:10.926Z,6.70
2018-08-23T07:07:11.130Z,7.00
2018-08-23T07:08:11.330Z,7.30
2018-08-23T07:09:11.535Z,6.90
2018-08-23T07:10:11.734Z,6.60
2018-08-23T07:11:11.937Z,6.90
2018-08-23T07:12:12.142Z,7.10
2018-08-23T07:13:12.340Z,7.30
2018-08-23T07:14:12.542Z,6.40
2018-08-23T07:15:12.750Z,6.50
2018-08-23T07:16:12.957Z,6.30
2018-08-23T07:17:13.201Z,6.60
2018-08-23T07:18:13.381Z,6.70
2018-08-23T07:19:13.561Z,6.80
2018-08-23T07:20:13.766Z,6.90
2018-08-23T07:21:13.973Z,6.60
2018-08-23T07:22:14.165Z,7.00
2018-08-23T07:23:14.366Z,7.10
2018-08-23T07:24:14.624Z,7.00
2018-08-23T07:25:14.772Z,7.00
2018-08-23T07:26:14.996Z,6.60
2018-08-23T07:27:15.174Z,7.00
2018-08-23T07:28:15.373Z,6.60
2018-08-23T07:29:15.582Z,6.30
2018-08-23T07:30:15.803Z,6.80
2018-08-23T07:31:15.994Z,6.50
2018-08-23T07:32:16.198Z,6.50
2018-08-23T07:33:16.413Z,6.30
2018-08-23T07:34:16.605Z,6.90
2018-08-23T07:35:16.814Z,6.90
2018-08-23T07:36:17.019Z,6.20
2018-08-23T07:37:17.219Z,6.80
2018-08-23T07:38:17.420Z,6.00
2018-08-23T07:39:17.639Z,5.90
2018-08-23T07:40:17.828Z,6.70
2018-08-23T07:41:18.029Z,6.50
2018-08-23T07:42:18.256Z,7.20
2018-08-23T07:43:18.443Z,7.00
2018-08-23T07:44:18.644Z,6.40
2018-08-23T07:45:18.844Z,7.10
2018-08-23T07:46:19.052Z,7.10
2018-08-23T07:47:19.252Z,6.80
2018-08-23T07:48:19.456Z,6.70
2018-08-23T07:49:19.744Z,6.60
2018-08-23T07:50:19.860Z,6.20
2018-08-23T07:51:20.074Z,5.90
2018-08-23T07:52:20.261Z,6.00
2018-08-23T07:53:20.503Z,5.60
2018-08-23T07:54:20.668Z,5.50
2018-08-23T07:55:20.871Z,5.70
2018-08-23T07:56:21.082Z,5.60
2018-08-23T07:57:21.289Z,6.80
2018-08-23T07:58:21.488Z,6.20
2018-08-23T07:59:21.695Z,5.40
2018-08-23T08:00:21.899Z,5.60
2018-08-23T08:01:22.102Z,5.60
2018-08-23T08:02:22.319Z,5.50
2018-08-23T08:03:22.524Z,5.20
2018-08-23T08:04:22.731Z,5.30
2018-08-23T08:05:22.937Z,5.40
2018-08-23T08:06:23.139Z,5.30
2018-08-23T08:07:23.338Z,5.20
2018-08-23T08:08:23.548Z,5.20
2018-08-23T08:09:23.750Z,4.80
2018-08-23T08:10:23.952Z,5.30
2018-08-23T08:11:24.157Z,5.00
2018-08-23T08:12:24.361Z,4.80
2018-08-23T08:13:24.563Z,4.80
2018-08-23T08:14:24.773Z,4.80
2018-08-23T08:15:24.972Z,4.70
2018-08-23T08:16:25.183Z,4.90
2018-08-23T08:17:25.383Z,5.40
2018-08-23T08:18:25.590Z,4.70
2018-08-23T08:19:25.795Z,4.90
2018-08-23T08:20:25.996Z,4.60
2018-08-23T08:21:26.196Z,4.80
2018-08-23T08:22:26.402Z,4.80
2018-08-23T08:23:26.609Z,4.40
2018-08-23T08:24:26.818Z,4.60
2018-08-23T08:25:27.018Z,4.50
2018-08-23T08:26:27.222Z,4.50
2018-08-23T08:27:27.425Z,4.60
2018-08-23T08:28:27.634Z,4.30
2018-08-23T08:29:27.841Z,4.60
2018-08-23T08:30:28.037Z,4.20
2018-08-23T08:31:28.244Z,4.50
2018-08-23T08:32:28.452Z,4.40
2018-08-23T08:33:28.662Z,4.30
2018-08-23T08:34:28.878Z,4.10
2018-08-23T08:35:29.085Z,3.90
2018-08-23T08:36:29.314Z,4.30
2018-08-23T08:37:29.524Z,4.10
2018-08-23T08:38:29.721Z,4.80
2018-08-23T08:39:29.928Z,4.60
2018-08-23T08:40:30.151Z,5.00
2018-08-23T08:41:30.338Z,4.20
2018-08-23T08:42:30.547Z,4.60
2018-08-23T08:43:30.754Z,4.90
2018-08-23T08:44:30.962Z,4.90
2018-08-23T08:45:31.162Z,4.50
2018-08-23T08:46:31.370Z,4.50
2018-08-23T08:47:31.576Z,4.40
2018-08-23T08:48:31.777Z,4.40
2018-08-23T08:49:31.977Z,4.20
2018-08-23T08:50:32.290Z,4.10
2018-08-23T08:51:32.403Z,4.80
2018-08-23T08:52:32.597Z,4.20
2018-08-23T08:53:32.800Z,4.60
2018-08-23T08:54:33.002Z,4.60
2018-08-23T08:55:33.210Z,4.60
2018-08-23T08:56:33.413Z,4.20
2018-08-23T08:57:33.630Z,4.40
2018-08-23T08:58:33.826Z,4.00
2018-08-23T08:59:34.038Z,4.00
2018-08-23T09:00:34.236Z,4.20
2018-08-23T09:01:34.450Z,3.90
2018-08-23T09:02:34.653Z,4.10
2018-08-23T09:03:34.859Z,3.50
2018-08-23T09:04:35.063Z,3.60
2018-08-23T09:05:35.277Z,3.90
2018-08-23T09:06:35.485Z,3.90
2018-08-23T09:07:35.690Z,3.70
2018-08-23T09:08:35.898Z,3.80
2018-08-23T09:09:36.114Z,3.80
2018-08-23T09:10:36.307Z,3.60
2018-08-23T09:11:36.515Z,3.80
2018-08-23T09:12:36.721Z,3.50
2018-08-23T09:13:36.931Z,3.50
2018-08-23T09:14:37.143Z,3.50
2018-08-23T09:15:37.349Z,3.60
2018-08-23T09:16:37.553Z,3.80
2018-08-23T09:17:37.761Z,3.30
2018-08-23T09:18:38.029Z,3.40
2018-08-23T09:19:38.172Z,3.70
2018-08-23T09:20:38.403Z,3.90
2018-08-23T09:21:38.591Z,3.60
2018-08-23T09:22:38.789Z,3.90
2018-08-23T09:23:38.990Z,3.50
2018-08-23T09:24:39.199Z,3.80
2018-08-23T09:25:39.401Z,3.80
2018-08-23T09:26:39.612Z,3.90
2018-08-23T09:27:39.818Z,3.20
2018-08-23T09:28:40.023Z,3.40
2018-08-23T09:29:40.228Z,3.70
2018-08-23T09:30:40.436Z,3.80
2018-08-23T09:31:40.642Z,3.60
2018-08-23T09:32:40.845Z,3.10
2018-08-23T09:33:41.064Z,3.40
2018-08-23T09:34:41.263Z,3.70
2018-08-23T09:35:41.474Z,3.50
2018-08-23T09:36:41.680Z,3.40
2018-08-23T09:37:41.910Z,3.50
2018-08-23T09:38:42.089Z,3.80
2018-08-23T09:39:42.288Z,4.00
2018-08-23T09:40:42.495Z,3.80
2018-08-23T09:41:42.702Z,3.50
2018-08-23T09:42:42.907Z,3.20
2018-08-23T09:43:43.116Z,3.20
2018-08-23T09:44:43.324Z,3.50
2018-08-23T09:45:43.532Z,3.50
2018-08-23T09:46:43.735Z,3.40
2018-08-23T09:47:43.938Z,3.10
2018-08-23T09:48:44.146Z,3.20
2018-08-23T09:49:44.350Z,3.30
2018-08-23T09:50:44.595Z,3.00
2018-08-23T09:51:44.773Z,3.00
2018-08-23T09:52:44.977Z,3.10
2018-08-23T09:53:45.185Z,3.50
2018-08-23T09:54:45.396Z,3.30
2018-08-23T09:55:45.598Z,3.10
2018-08-23T09:56:45.880Z,3.10
2018-08-23T09:57:46.010Z,3.40
2018-08-23T09:58:46.281Z,3.00
2018-08-23T09:59:46.425Z,3.30
2018-08-23T10:00:46.631Z,3.10
2018-08-23T10:01:46.838Z,3.20
2018-08-23T10:02:47.042Z,3.00
2018-08-23T10:03:47.247Z,3.40
2018-08-23T10:04:47.536Z,3.30
2018-08-23T10:05:47.661Z,3.60
2018-08-23T10:06:47.864Z,3.70
2018-08-23T10:07:48.080Z,3.90
2018-08-23T10:08:48.283Z,3.50
2018-08-23T10:09:48.486Z,3.60
2018-08-23T10:10:48.692Z,3.40
2018-08-23T10:11:48.959Z,3.50
2018-08-23T10:12:49.108Z,3.30
2018-08-23T10:13:49.314Z,3.30
2018-08-23T10:14:49.519Z,3.30
2018-08-23T10:15:49.731Z,3.10
2018-08-23T10:16:49.938Z,3.40
2018-08-23T10:17:50.145Z,3.20
2018-08-23T10:18:50.351Z,2.70
2018-08-23T10:19:50.551Z,2.90
2018-08-23T10:20:50.757Z,2.70
2018-08-23T10:21:50.966Z,3.00
2018-08-23T10:22:51.168Z,3.00
2018-08-23T10:23:51.379Z,3.00
2018-08-23T10:24:51.583Z,2.70
2018-08-23T10:25:51.781Z,2.60
2018-08-23T10:26:51.991Z,2.60
2018-08-23T10:27:52.200Z,2.60
2018-08-23T10:28:52.407Z,2.80
2018-08-23T10:29:52.610Z,2.50
2018-08-23T10:30:52.820Z,2.60
2018-08-23T10:31:53.023Z,2.90
2018-08-23T10:32:53.233Z,2.70
2018-08-23T10:33:53.440Z,2.70
2018-08-23T10:34:53.645Z,2.50
2018-08-23T10:35:53.860Z,2.60
2018-08-23T10:36:54.063Z,3.20
2018-08-23T10:37:54.271Z,2.80
2018-08-23T10:38:54.478Z,2.80
2018-08-23T10:39:54.683Z,3.00
2018-08-23T10:40:54.890Z,3.10
2018-08-23T10:41:55.093Z,2.50
2018-08-23T10:42:55.301Z,2.70
2018-08-23T10:43:55.505Z,2.90
2018-08-23T10:44:55.714Z,2.90
2018-08-23T10:45:55.914Z,2.90
2018-08-23T10:46:56.116Z,3.10
2018-08-23T10:47:56.320Z,2.80
2018-08-23T10:48:56.532Z,2.80
2018-08-23T10:49:56.737Z,2.90
2018-08-23T10:50:56.995Z,3.00
2018-08-23T10:51:57.149Z,2.60
2018-08-23T10:52:57.355Z,2.30
2018-08-23T10:53:57.570Z,2.50
2018-08-23T10:54:57.773Z,2.40
2018-08-23T10:55:57.978Z,2.50
2018-08-23T10:56:58.188Z,2.30
2018-08-23T10:57:58.393Z,2.10
2018-08-23T10:58:58.600Z,2.10
2018-08-23T10:59:58.807Z,2.30
2018-08-23T11:00:59.008Z,2.40
2018-08-23T11:01:59.214Z,2.40
2018-08-23T11:02:59.422Z,2.60
2018-08-23T11:03:59.624Z,2.50
2018-08-23T11:04:59.832Z,2.80
2018-08-23T11:06:00.036Z,2.70
2018-08-23T11:07:00.233Z,2.90
2018-08-23T11:08:00.439Z,2.80
2018-08-23T11:09:00.643Z,2.90
2018-08-23T11:10:00.850Z,2.90
2018-08-23T11:11:01.060Z,2.80
2018-08-23T11:12:01.263Z,3.20
2018-08-23T11:13:01.467Z,3.20
2018-08-23T11:14:01.677Z,3.50
2018-08-23T11:15:01.885Z,2.90
2018-08-23T11:16:02.085Z,3.30
2018-08-23T11:17:02.413Z,3.00
2018-08-23T11:18:02.507Z,3.20
2018-08-23T11:19:02.711Z,3.00
2018-08-23T11:20:02.916Z,3.20
2018-08-23T11:21:03.119Z,3.00
2018-08-23T11:22:03.325Z,3.30
2018-08-23T11:23:03.536Z,2.90
2018-08-23T11:24:03.730Z,2.60
2018-08-23T11:25:03.941Z,2.70
2018-08-23T11:26:04.149Z,2.60
2018-08-23T11:27:04.369Z,2.50
2018-08-23T11:28:04.576Z,2.60
2018-08-23T11:29:04.792Z,2.40
2018-08-23T11:30:04.997Z,2.50
2018-08-23T11:31:05.188Z,2.10
2018-08-23T11:32:05.403Z,2.60
2018-08-23T11:33:05.601Z,2.70
2018-08-23T11:34:05.801Z,2.50
2018-08-23T11:35:06.080Z,2.60
2018-08-23T11:36:06.216Z,2.30
2018-08-23T11:37:06.418Z,3.30
2018-08-23T11:38:06.618Z,3.70
2018-08-23T11:39:06.819Z,3.70
2018-08-23T11:40:07.029Z,3.70
2018-08-23T11:41:07.234Z,3.90
2018-08-23T11:42:07.437Z,4.40
2018-08-23T11:43:07.646Z,4.10
2018-08-23T11:44:07.847Z,3.90
2018-08-23T11:45:08.053Z,3.70
2018-08-23T11:46:08.253Z,3.10
2018-08-23T11:47:08.457Z,3.30
2018-08-23T11:48:08.656Z,3.20
2018-08-23T11:49:08.859Z,3.00
2018-08-23T11:50:09.057Z,2.90
2018-08-23T11:51:09.260Z,3.70
2018-08-23T11:52:09.468Z,3.30
2018-08-23T11:53:09.758Z,3.60
2018-08-23T11:54:09.860Z,4.10
2018-08-23T11:55:10.065Z,3.80
2018-08-23T11:56:10.266Z,3.60
2018-08-23T11:57:10.470Z,4.20
2018-08-23T11:58:10.718Z,4.10
2018-08-23T11:59:10.929Z,4.20
2018-08-23T12:00:11.071Z,3.70
2018-08-23T12:01:11.264Z,3.90
2018-08-23T12:02:11.467Z,4.00
2018-08-23T12:03:11.670Z,3.70
2018-08-23T12:04:11.869Z,3.60
2018-08-23T12:05:12.069Z,3.70
2018-08-23T12:06:12.273Z,3.80
2018-08-23T12:07:12.481Z,4.40
2018-08-23T12:08:12.683Z,4.40
2018-08-23T12:09:12.877Z,4.30
2018-08-23T12:10:13.076Z,4.10
2018-08-23T12:11:13.266Z,4.10
2018-08-23T12:12:13.468Z,4.30
2018-08-23T12:13:13.660Z,4.30
2018-08-23T12:14:13.864Z,4.10
2018-08-23T12:15:14.070Z,4.10
2018-08-23T12:16:14.296Z,4.00
2018-08-23T12:17:14.474Z,3.90
2018-08-23T12:18:14.669Z,4.50
2018-08-23T12:19:14.863Z,4.10
2018-08-23T12:20:15.077Z,4.40
2018-08-23T12:21:15.279Z,4.40
2018-08-23T12:22:15.487Z,4.30
2018-08-23T12:23:15.692Z,4.00
2018-08-23T12:24:15.887Z,4.40
2018-08-23T12:25:16.086Z,4.70
2018-08-23T12:26:16.421Z,4.50
2018-08-23T12:27:16.583Z,4.80
2018-08-23T12:28:16.803Z,4.70
2018-08-23T12:29:17.005Z,4.90
2018-08-23T12:30:17.210Z,4.80
2018-08-23T12:31:17.407Z,4.60
2018-08-23T12:32:17.610Z,5.00
2018-08-23T12:33:17.810Z,5.00
2018-08-23T12:34:18.011Z,4.70
2018-08-23T12:35:18.210Z,4.90
2018-08-23T12:36:18.422Z,5.40
2018-08-23T12:37:18.631Z,5.00
2018-08-23T12:38:18.835Z,4.60
2018-08-23T12:39:19.033Z,5.20
2018-08-23T12:40:19.232Z,4.70
2018-08-23T12:41:19.438Z,4.70
2018-08-23T12:42:19.637Z,4.70
2018-08-23T12:43:19.858Z,4.60
2018-08-23T12:44:20.044Z,4.80
2018-08-23T12:45:20.254Z,4.50
2018-08-23T12:46:20.485Z,4.90
2018-08-23T12:47:20.664Z,4.50
2018-08-23T12:48:20.864Z,4.90
2018-08-23T12:49:21.086Z,4.50
2018-08-23T12:50:21.260Z,4.50
2018-08-23T12:51:21.472Z,4.70
2018-08-23T12:52:21.663Z,4.30
2018-08-23T12:53:21.937Z,4.20
2018-08-23T12:54:22.049Z,4.60
2018-08-23T12:55:22.245Z,4.50
2018-08-23T12:56:22.503Z,4.70
2018-08-23T12:57:22.658Z,4.40
2018-08-23T12:58:22.853Z,4.50
2018-08-23T12:59:23.056Z,4.40
2018-08-23T13:00:23.250Z,4.40
2018-08-23T13:01:23.483Z,5.00
2018-08-23T13:02:23.729Z,5.00
2018-08-23T13:03:23.860Z,4.70
2018-08-23T13:04:24.163Z,4.80
2018-08-23T13:05:24.260Z,4.70
2018-08-23T13:06:24.564Z,4.80
2018-08-23T13:07:24.667Z,4.10
2018-08-23T13:08:24.953Z,4.30
2018-08-23T13:09:25.079Z,4.60
2018-08-23T13:10:25.260Z,5.30
2018-08-23T13:11:25.476Z,5.00
2018-08-23T13:12:25.679Z,4.80
2018-08-23T13:13:25.875Z,5.00
2018-08-23T13:14:26.083Z,4.90
2018-08-23T13:15:26.289Z,5.60
2018-08-23T13:16:26.488Z,5.00
2018-08-23T13:17:26.694Z,5.40